Terminal Aerodrome Forecast
Issued by NWS

Home | Current Version | Previous Version | Text Only | Print | Product List | Glossary On
Versions: 1 2 3 4 5 6 7 8 9 10 11 12 13 14
723
FTUS42 KGSP 111120
TAFGMU
TAF
KGMU 111120Z 1112/1212 25005KT P6SM FEW060 SCT250
     FM112100 22006KT P6SM SCT050
     FM120200 06003KT P6SM BKN060
     FM120600 03003KT P6SM SCT025 OVC045=

USA.gov is the U.S. government's official web portal to all federal, state and local government web resources and services.